Deep Creek, Idaho
Current Conditions -  °F | °C
As of 12:53 PM on Saturday 25 Oct 2014 (Local Time) from KJER Reporting Station
Clear Clear  
Wind Chill: 74°   Ceiling: Unl
Heat Index: 74°   Visibility: 10mi
Dew Point: 30°   Wind: 20mph
Humidity: 20%   Direction: 170°S
Pressure: 29.9"   Gusts: 26mph
Location:  42.6472°N, 114.901°W
Report Text: KJER 251853Z AUTO 17017G23KT 10SM CLR 23/M01 A2990 RMK AO2 PK WND 17026/1842 SLP099 T02331011
Loading
Personal Weather Stations






























Interactive Weather Map
Tropical Storm Tracking
New forecast layout! Learn more

10-Day Weather Forecast

Advertisements
Track Severe Weather on mobile